createdAt,value
2022-09-28T00:05:49.854Z,3.58
2022-09-28T00:13:25.647Z,3.42
2022-09-28T00:21:04.327Z,3.33
2022-09-28T00:28:39.346Z,3.08
2022-09-28T00:36:13.011Z,2.53
2022-09-28T00:43:48.075Z,2.80
2022-09-28T00:51:22.219Z,2.88
2022-09-28T00:58:59.986Z,3.00
2022-09-28T01:06:35.767Z,2.55
2022-09-28T01:14:14.250Z,3.22
2022-09-28T01:21:53.543Z,3.53
2022-09-28T01:29:38.195Z,2.17
2022-09-28T01:37:17.636Z,2.97
2022-09-28T01:44:56.688Z,2.53
2022-09-28T01:52:34.764Z,2.58
2022-09-28T02:00:12.861Z,4.22
2022-09-28T02:07:54.512Z,3.58
2022-09-28T02:15:34.759Z,4.25
2022-09-28T02:23:10.414Z,3.50
2022-09-28T02:30:46.014Z,4.15
2022-09-28T02:38:19.739Z,3.92
2022-09-28T02:46:05.046Z,4.30
2022-09-28T03:01:29.797Z,3.60
2022-09-28T03:09:08.922Z,4.90
2022-09-28T03:16:46.329Z,4.55
2022-09-28T03:24:20.092Z,6.57
2022-09-28T03:31:55.145Z,4.18
2022-09-28T03:39:28.980Z,5.22
2022-09-28T03:47:04.027Z,5.43
2022-09-28T03:54:37.731Z,3.70
2022-09-28T04:02:12.939Z,4.75
2022-09-28T04:09:46.650Z,5.50
2022-09-28T04:17:21.774Z,6.95
2022-09-28T04:24:55.422Z,5.38
2022-09-28T04:32:30.475Z,7.63
2022-09-28T04:40:04.822Z,21.92
2022-09-28T04:47:39.818Z,21.83
2022-09-28T05:02:49.022Z,8.25
2022-09-28T05:10:23.672Z,8.43
2022-09-28T05:17:58.883Z,6.65
2022-09-28T05:25:32.622Z,8.32
2022-09-28T05:33:09.015Z,9.52
2022-09-28T05:40:42.798Z,8.88
2022-09-28T05:48:18.038Z,7.50
2022-09-28T05:55:51.780Z,6.78
2022-09-28T06:03:27.039Z,8.25
2022-09-28T06:11:02.186Z,11.48
2022-09-28T06:18:37.399Z,6.47
2022-09-28T06:26:11.150Z,8.57
2022-09-28T06:33:46.399Z,7.88
2022-09-28T06:41:20.144Z,8.95
2022-09-28T06:48:55.508Z,7.55
2022-09-28T06:56:32.737Z,8.80
2022-09-28T07:04:08.255Z,8.32
2022-09-28T07:11:42.038Z,8.32
2022-09-28T07:19:17.183Z,10.90
2022-09-28T07:26:51.084Z,7.93
2022-09-28T07:34:26.281Z,6.68
2022-09-28T07:42:03.022Z,5.80
2022-09-28T07:49:38.356Z,7.90
2022-09-28T07:57:12.100Z,6.72
2022-09-28T08:04:47.346Z,11.88
2022-09-28T08:12:21.377Z,9.32
2022-09-28T08:20:13.718Z,9.93
2022-09-28T08:27:47.479Z,7.57
2022-09-28T08:35:22.800Z,8.07
2022-09-28T08:43:01.544Z,9.45
2022-09-28T08:50:42.570Z,5.72
2022-09-28T08:58:23.500Z,9.75
2022-09-28T09:06:08.628Z,6.22
2022-09-28T09:13:57.020Z,4.30
2022-09-28T09:21:41.644Z,3.80
2022-09-28T09:29:30.399Z,2.70
2022-09-28T09:37:29.157Z,1.55
2022-09-28T09:45:41.273Z,1.98
2022-09-28T09:53:24.111Z,2.13
2022-09-28T10:01:07.078Z,2.00
2022-09-28T10:08:47.077Z,1.83
2022-09-28T10:16:21.226Z,1.23
2022-09-28T10:24:02.480Z,1.17
2022-09-28T10:31:41.865Z,0.98
2022-09-28T10:39:39.836Z,6.60
2022-09-28T10:47:18.493Z,2.92
2022-09-28T10:54:55.142Z,1.67
2022-09-28T11:02:35.701Z,2.30
2022-09-28T11:10:21.621Z,3.53
2022-09-28T11:17:55.558Z,5.07
2022-09-28T11:25:31.897Z,3.00
2022-09-28T11:33:12.286Z,3.17
2022-09-28T11:41:00.478Z,2.58
2022-09-28T11:48:40.442Z,2.60
2022-09-28T11:56:23.780Z,3.47
2022-09-28T12:04:03.286Z,3.03
2022-09-28T12:11:43.941Z,1.10
2022-09-28T12:19:21.942Z,2.33
2022-09-28T12:27:01.579Z,1.02
2022-09-28T12:34:35.277Z,1.30
2022-09-28T12:42:21.770Z,0.60
2022-09-28T12:58:19.676Z,1.95
2022-09-28T13:06:21.667Z,2.25
2022-09-28T13:14:05.976Z,1.05
2022-09-28T13:21:47.473Z,1.15
2022-09-28T13:29:24.139Z,1.00
2022-09-28T13:37:20.955Z,0.88
2022-09-28T13:45:38.932Z,1.10
2022-09-28T13:53:30.403Z,1.52
2022-09-28T14:01:10.369Z,1.52
2022-09-28T14:09:24.867Z,0.82
2022-09-28T14:17:50.395Z,0.82
2022-09-28T14:25:27.732Z,0.57
2022-09-28T14:33:02.759Z,1.35
2022-09-28T14:48:48.951Z,1.75
2022-09-28T14:56:23.116Z,1.05
2022-09-28T15:04:01.359Z,2.20
2022-09-28T15:11:35.210Z,1.15
2022-09-28T15:19:22.954Z,1.48
2022-09-28T15:26:57.163Z,1.55
2022-09-28T15:34:51.468Z,2.47
2022-09-28T15:42:25.625Z,1.95
2022-09-28T15:50:03.273Z,1.33
2022-09-28T15:57:39.042Z,2.25
2022-09-28T16:05:34.109Z,2.50
2022-09-28T16:13:15.496Z,1.30
2022-09-28T16:20:53.093Z,1.25
2022-09-28T16:28:51.815Z,2.10
2022-09-28T16:36:30.728Z,2.28
2022-09-28T16:44:04.578Z,3.42
2022-09-28T16:51:40.252Z,3.20
2022-09-28T16:59:14.112Z,2.50
2022-09-28T17:06:49.211Z,3.88
2022-09-28T17:22:02.061Z,5.60
2022-09-28T17:29:35.852Z,4.50
2022-09-28T17:37:15.254Z,3.53
2022-09-28T17:44:48.966Z,4.00
2022-09-28T17:52:24.036Z,2.92
2022-09-28T17:59:58.464Z,2.75
2022-09-28T18:07:34.543Z,2.97
2022-09-28T18:15:09.203Z,4.63
2022-09-28T18:22:44.243Z,3.35
2022-09-28T18:37:53.122Z,3.75
2022-09-28T18:45:26.826Z,3.75
2022-09-28T18:53:11.449Z,3.35
2022-09-28T19:00:45.543Z,4.03
2022-09-28T19:08:25.506Z,3.75
2022-09-28T19:16:01.613Z,4.68
2022-09-28T19:23:37.638Z,4.27
2022-09-28T19:31:12.655Z,5.07
2022-09-28T19:46:21.238Z,5.32
2022-09-28T19:53:56.360Z,5.95
2022-09-28T20:09:06.280Z,6.78
2022-09-28T20:16:39.917Z,7.10
2022-09-28T20:24:16.206Z,7.65
2022-09-28T20:31:49.967Z,10.13
2022-09-28T20:39:24.923Z,7.15
2022-09-28T20:54:33.440Z,8.35
2022-09-28T21:02:07.096Z,9.27
2022-09-28T21:09:42.140Z,7.15
2022-09-28T21:17:15.846Z,5.35
2022-09-28T21:24:50.863Z,6.22
2022-09-28T21:39:59.545Z,5.72
2022-09-28T21:47:33.213Z,4.38
2022-09-28T21:55:10.233Z,4.13
2022-09-28T22:02:44.311Z,3.83
2022-09-28T22:10:19.438Z,3.40
2022-09-28T22:17:53.098Z,3.95
2022-09-28T22:25:28.099Z,4.68
2022-09-28T22:40:38.442Z,4.82
2022-09-28T22:48:12.812Z,4.65
2022-09-28T22:55:47.883Z,6.17
2022-09-28T23:03:21.575Z,4.75
2022-09-28T23:10:56.604Z,5.00
2022-09-28T23:18:32.708Z,4.93
2022-09-28T23:26:15.423Z,5.57
2022-09-28T23:33:49.082Z,5.97
2022-09-28T23:41:24.346Z,5.30
2022-09-28T23:48:57.994Z,6.13
2022-09-28T23:56:33.070Z,6.97
